EmailTwitter


Observations de surface / Québec / CYHU (71371)

Régions: Québec | Canada | États-Unis | Europe | France | UK | Ailleurs
Station
Affichage
Infos & localisation pour CYHU (71371) | Aide pour décoder les METARs

Observations prises le 2018-11-14 à 11H00 UTC à MONTREAL/ST HUBE, QB (CYHU)

Etat du ciel: dégagé.

Température: -10.0 Celsius

Point de rosée: -17.0 Celsius

Humidité relative: 57%

Facteur vent: -19.

Facteur vent (rafales): -21.

Vents: Ouest-nord-ouest à 26 km/h ou 14 noeuds.

Rafale du vent: 41 km/h ou 22 noeuds.

Pression au niveau moyen de la mer: 102.42 kilopascals.

Calage altimétrique: 102.37 kilopascals ou 30.23 pouces de mercure.

Visibilité horizontale: 9.00 milles terrestres ou 14.40 kilomètres.

Observation METAR:

CYHU 141100Z AUTO 29014G22KT 9SM CLR M10/M17 A3023 RMK SLP242=